Time;durP1;ratioP1;P1;durP2;ratioP2;P2;SDS_P1;SDS_P2;PMS_P1;PMS_P2;Temp;Humidity;BMP_temperature;BMP_pressure;BME280_temperature;BME280_humidity;BME280_pressure;Samples;Min_cycle;Max_cycle;Signal;HPM_P1;HPM_P2
2024/03/16 00:00:19;;;;;;;40.10;18.40;;;6.10;99.90;;;;;;5113570;28;20197;-75
2024/03/16 00:03:07;;;;;;;34.57;17.37;;;6.10;99.90;;;;;;5113566;28;20203;-75
2024/03/16 00:05:58;;;;;;;34.40;18.50;;;6.10;99.90;;;;;;5112563;28;20203;-75
2024/03/16 00:08:46;;;;;;;35.73;18.23;;;6.10;99.90;;;;;;5113467;28;20269;-76
2024/03/16 00:11:33;;;;;;;36.03;17.00;;;6.10;99.90;;;;;;5086280;28;20205;-75
2024/03/16 00:14:21;;;;;;;34.40;17.70;;;6.10;99.90;;;;;;5097831;28;20212;-75
2024/03/16 00:17:09;;;;;;;40.23;18.63;;;6.10;99.90;;;;;;5112386;28;20198;-76
2024/03/16 00:19:57;;;;;;;37.27;18.13;;;6.10;99.90;;;;;;5112088;28;20702;-76
2024/03/16 00:23:06;;;;;;;37.53;18.60;;;6.20;99.90;;;;;;5112814;28;20189;-76
2024/03/16 00:26:01;;;;;;;37.40;18.43;;;6.20;99.90;;;;;;5112972;28;20212;-76
2024/03/16 00:29:07;;;;;;;37.27;17.77;;;6.10;99.90;;;;;;5112826;28;20656;-77
2024/03/16 00:31:57;;;;;;;35.10;18.27;;;6.10;99.90;;;;;;5112823;28;20203;-76
2024/03/16 00:34:49;;;;;;;32.27;17.03;;;6.10;99.90;;;;;;5098290;28;20351;-75
2024/03/16 00:37:40;;;;;;;38.80;18.47;;;6.10;99.90;;;;;;5112285;28;20201;-76
2024/03/16 00:40:30;;;;;;;35.80;17.50;;;6.00;99.90;;;;;;5112314;28;20253;-76
2024/03/16 00:43:22;;;;;;;33.80;17.50;;;6.00;99.90;;;;;;5112824;28;20201;-75
2024/03/16 00:46:11;;;;;;;38.27;18.70;;;6.00;99.90;;;;;;5112432;28;20218;-76
2024/03/16 00:48:58;;;;;;;35.33;17.40;;;6.00;99.90;;;;;;5112792;28;20228;-75
2024/03/16 00:51:46;;;;;;;35.40;17.70;;;6.00;99.90;;;;;;5098568;28;20363;-76
2024/03/16 00:54:34;;;;;;;34.70;17.80;;;6.00;99.90;;;;;;5111493;28;20219;-76
2024/03/16 00:57:24;;;;;;;34.80;17.90;;;6.00;99.90;;;;;;5111771;28;20202;-76
2024/03/16 01:00:14;;;;;;;34.07;17.67;;;6.00;99.90;;;;;;5113375;28;20190;-76
2024/03/16 01:03:02;;;;;;;36.00;18.27;;;6.00;99.90;;;;;;5097612;28;20224;-76
2024/03/16 01:05:52;;;;;;;37.10;18.00;;;6.00;99.90;;;;;;5113776;28;20297;-76
2024/03/16 01:08:40;;;;;;;34.37;17.80;;;6.00;99.90;;;;;;5111208;28;20191;-76
2024/03/16 01:11:27;;;;;;;35.03;17.43;;;5.90;99.90;;;;;;5098677;28;20656;-76
2024/03/16 01:14:15;;;;;;;36.97;18.07;;;5.90;99.90;;;;;;5111885;28;20220;-76
2024/03/16 01:17:03;;;;;;;36.10;18.10;;;5.90;99.90;;;;;;5112150;28;20198;-75
2024/03/16 01:19:51;;;;;;;39.23;18.00;;;5.90;99.90;;;;;;5084032;28;20208;-76
2024/03/16 01:22:42;;;;;;;35.50;17.80;;;5.90;99.90;;;;;;5098364;28;20198;-76
2024/03/16 01:25:29;;;;;;;37.03;18.40;;;5.90;99.90;;;;;;5111959;28;20193;-75
2024/03/16 01:28:17;;;;;;;37.70;18.43;;;5.90;99.90;;;;;;5097317;28;20279;-76
2024/03/16 01:31:08;;;;;;;36.83;17.80;;;5.90;99.90;;;;;;5110431;28;20199;-76
2024/03/16 01:33:58;;;;;;;40.93;18.90;;;5.80;99.90;;;;;;5095983;28;20639;-76
2024/03/16 01:36:46;;;;;;;35.77;17.50;;;5.80;99.90;;;;;;5111015;28;20382;-75
2024/03/16 01:39:48;;;;;;;31.57;17.30;;;5.70;99.90;;;;;;5112589;28;20217;-76
2024/03/16 01:42:36;;;;;;;35.93;17.70;;;5.70;99.90;;;;;;5111311;28;20212;-76
2024/03/16 01:45:24;;;;;;;36.10;17.70;;;5.80;99.90;;;;;;5110853;28;20681;-76
2024/03/16 01:48:14;;;;;;;37.00;18.23;;;5.80;99.90;;;;;;5111383;28;20195;-76
2024/03/16 01:51:02;;;;;;;37.10;18.53;;;5.80;99.90;;;;;;5111092;28;20794;-76
2024/03/16 01:53:52;;;;;;;34.13;17.67;;;5.80;99.90;;;;;;5110928;28;20269;-76
2024/03/16 01:56:40;;;;;;;36.87;17.73;;;5.80;99.90;;;;;;5096865;28;20343;-76
2024/03/16 01:59:27;;;;;;;36.00;17.97;;;5.90;99.90;;;;;;5097258;28;20238;-76
2024/03/16 02:02:39;;;;;;;33.30;17.60;;;5.80;99.90;;;;;;5097330;28;20192;-76
2024/03/16 02:05:32;;;;;;;35.30;18.47;;;5.80;99.90;;;;;;5110199;28;20252;-76
2024/03/16 02:08:19;;;;;;;35.63;17.93;;;5.90;99.90;;;;;;5082928;28;20193;-75
2024/03/16 02:11:10;;;;;;;36.77;18.87;;;5.90;99.90;;;;;;5110464;28;20275;-76
2024/03/16 02:14:05;;;;;;;35.23;17.73;;;5.90;99.90;;;;;;5097535;28;20214;-76
2024/03/16 02:16:54;;;;;;;36.87;18.27;;;5.90;99.90;;;;;;5112722;28;20192;-75
2024/03/16 02:19:42;;;;;;;38.80;18.43;;;5.90;99.90;;;;;;5111152;28;20217;-76
2024/03/16 02:22:30;;;;;;;37.97;18.03;;;5.80;99.90;;;;;;5111004;28;20199;-76
2024/03/16 02:25:18;;;;;;;36.30;16.97;;;5.80;99.90;;;;;;5110502;28;20201;-75
2024/03/16 02:28:08;;;;;;;35.97;17.70;;;5.90;99.90;;;;;;5111546;28;20323;-76
2024/03/16 02:30:58;;;;;;;37.47;18.00;;;5.70;99.90;;;;;;5110167;28;20202;-76
2024/03/16 02:33:47;;;;;;;35.67;18.00;;;5.70;99.90;;;;;;5096634;28;20351;-76
2024/03/16 02:36:53;;;;;;;36.67;17.83;;;5.70;99.90;;;;;;5096309;28;20231;-76
2024/03/16 02:39:55;;;;;;;36.77;18.63;;;5.70;99.90;;;;;;5096323;28;20196;-75
2024/03/16 02:42:43;;;;;;;36.13;18.50;;;5.60;99.90;;;;;;5097787;28;20192;-76
2024/03/16 02:45:31;;;;;;;37.17;18.17;;;5.60;99.90;;;;;;5115262;28;20202;-75
2024/03/16 02:48:19;;;;;;;33.50;17.60;;;5.60;99.90;;;;;;5100321;28;20190;-75
2024/03/16 02:51:09;;;;;;;36.93;18.37;;;5.60;99.90;;;;;;5113956;28;20694;-76
2024/03/16 02:53:58;;;;;;;33.83;18.17;;;5.60;99.90;;;;;;5100207;28;20300;-76
2024/03/16 02:56:45;;;;;;;36.67;17.83;;;5.60;99.90;;;;;;5100370;28;20234;-75
2024/03/16 02:59:36;;;;;;;35.60;18.47;;;5.60;99.90;;;;;;5115721;28;20662;-76
2024/03/16 03:02:23;;;;;;;39.70;18.63;;;5.60;99.90;;;;;;5114274;28;20204;-76
2024/03/16 03:05:19;;;;;;;35.40;18.17;;;5.50;99.90;;;;;;5114941;28;20222;-76
2024/03/16 03:08:07;;;;;;;37.10;18.60;;;5.50;99.90;;;;;;5115501;28;20195;-76
2024/03/16 03:10:56;;;;;;;38.07;18.83;;;5.50;99.90;;;;;;5114429;28;20200;-75
2024/03/16 03:13:44;;;;;;;37.20;18.57;;;5.50;99.90;;;;;;5114164;28;20617;-76
2024/03/16 03:16:34;;;;;;;35.47;17.77;;;5.50;99.90;;;;;;5100205;28;20195;-76
2024/03/16 03:19:22;;;;;;;36.90;18.13;;;5.50;99.90;;;;;;5114012;28;20700;-76
2024/03/16 03:22:09;;;;;;;38.30;17.57;;;5.50;99.90;;;;;;5114354;28;20207;-76
2024/03/16 03:24:57;;;;;;;38.63;18.67;;;5.40;99.90;;;;;;5100154;28;20206;-76
2024/03/16 03:27:45;;;;;;;37.17;19.07;;;5.40;99.90;;;;;;5099723;28;20947;-75
2024/03/16 03:30:32;;;;;;;36.30;18.00;;;5.30;99.90;;;;;;5113726;28;20189;-76
2024/03/16 03:33:20;;;;;;;36.40;18.27;;;5.30;99.90;;;;;;5113424;28;20193;-76
2024/03/16 03:36:07;;;;;;;40.27;20.00;;;5.30;99.90;;;;;;5113899;28;20697;-76
2024/03/16 03:38:55;;;;;;;37.50;18.17;;;5.30;99.90;;;;;;5099336;28;20580;-76
2024/03/16 03:41:42;;;;;;;35.50;18.43;;;5.30;99.90;;;;;;5113459;28;20323;-75
2024/03/16 03:44:38;;;;;;;35.33;18.43;;;5.30;99.90;;;;;;5113328;28;20729;-75
2024/03/16 03:47:40;;;;;;;39.13;18.43;;;5.30;99.90;;;;;;5115089;28;20285;-75
2024/03/16 03:50:32;;;;;;;36.50;17.63;;;5.30;99.90;;;;;;5098209;28;20672;-76
2024/03/16 03:53:22;;;;;;;32.43;17.23;;;5.40;99.90;;;;;;5113359;28;20679;-75
2024/03/16 03:56:10;;;;;;;36.57;19.00;;;5.40;99.90;;;;;;5112417;28;20695;-76
2024/03/16 03:59:01;;;;;;;37.57;18.50;;;5.40;99.90;;;;;;5113644;28;20203;-76
2024/03/16 04:01:48;;;;;;;38.97;18.90;;;5.30;99.90;;;;;;5115335;28;20202;-76
2024/03/16 04:04:36;;;;;;;36.00;18.60;;;5.40;99.90;;;;;;5112674;28;20627;-76
2024/03/16 04:07:27;;;;;;;40.43;18.87;;;5.40;99.90;;;;;;5112792;28;20319;-76
2024/03/16 04:10:14;;;;;;;37.63;18.73;;;5.30;99.90;;;;;;5113108;28;20547;-75
2024/03/16 04:13:03;;;;;;;35.87;18.70;;;5.30;99.90;;;;;;5112363;28;20242;-76
2024/03/16 04:15:54;;;;;;;38.03;19.00;;;5.30;99.90;;;;;;5113259;28;20588;-76
2024/03/16 04:18:48;;;;;;;33.73;18.17;;;5.30;99.90;;;;;;5112873;28;20689;-76
2024/03/16 04:21:35;;;;;;;38.80;19.10;;;5.30;99.90;;;;;;5098663;28;20186;-76
2024/03/16 04:24:23;;;;;;;39.80;19.40;;;5.30;99.90;;;;;;5113007;28;20211;-76
2024/03/16 04:27:10;;;;;;;39.83;18.97;;;5.30;99.90;;;;;;5112236;28;20197;-76
2024/03/16 04:29:58;;;;;;;37.50;18.97;;;5.40;99.90;;;;;;5112969;28;20276;-76
2024/03/16 04:32:45;;;;;;;42.20;19.97;;;5.40;99.90;;;;;;5113246;28;20604;-76
2024/03/16 04:35:39;;;;;;;39.17;19.30;;;5.50;99.90;;;;;;5097454;28;20229;-76
2024/03/16 04:38:26;;;;;;;38.20;18.30;;;5.60;99.90;;;;;;5112781;28;20198;-76
2024/03/16 04:41:14;;;;;;;37.20;18.63;;;5.60;99.90;;;;;;5098308;28;20667;-76
2024/03/16 04:44:02;;;;;;;36.30;18.80;;;5.70;99.90;;;;;;5111753;28;20201;-76
2024/03/16 04:46:50;;;;;;;38.93;19.47;;;5.70;99.90;;;;;;5098148;28;20234;-76
2024/03/16 04:49:37;;;;;;;41.67;19.43;;;5.80;99.90;;;;;;5112280;28;20249;-75
2024/03/16 04:52:25;;;;;;;40.50;19.27;;;5.80;99.90;;;;;;5112226;28;20586;-76
2024/03/16 04:55:13;;;;;;;37.57;19.13;;;5.80;99.90;;;;;;5112119;28;20301;-76
2024/03/16 04:58:04;;;;;;;43.60;19.90;;;5.80;99.90;;;;;;5098007;28;20197;-76
2024/03/16 05:00:52;;;;;;;36.63;18.50;;;5.80;99.90;;;;;;5098396;28;20193;-75
2024/03/16 05:03:40;;;;;;;40.67;19.13;;;5.90;99.90;;;;;;5112497;28;20233;-77
2024/03/16 05:06:30;;;;;;;38.60;19.10;;;5.80;99.90;;;;;;5111383;28;20198;-76
2024/03/16 05:09:18;;;;;;;37.13;18.77;;;5.80;99.90;;;;;;5097197;28;20283;-77
2024/03/16 05:12:06;;;;;;;38.27;18.77;;;5.90;99.90;;;;;;5112179;28;20189;-76
2024/03/16 05:14:53;;;;;;;40.30;18.73;;;6.00;99.90;;;;;;5112406;28;20212;-76
2024/03/16 05:17:41;;;;;;;35.17;18.50;;;6.00;99.90;;;;;;5097546;28;20719;-76
2024/03/16 05:20:32;;;;;;;40.07;19.20;;;6.20;99.90;;;;;;5110969;28;20210;-75
2024/03/16 05:23:19;;;;;;;33.70;18.83;;;6.30;99.90;;;;;;5111256;28;20193;-75
2024/03/16 05:26:07;;;;;;;33.67;18.37;;;6.20;99.90;;;;;;5097966;28;20199;-76
2024/03/16 05:28:55;;;;;;;41.50;20.10;;;6.20;99.90;;;;;;5111576;28;20227;-76
2024/03/16 05:31:59;;;;;;;39.37;18.97;;;6.30;99.90;;;;;;5111237;28;20194;-76
2024/03/16 05:34:47;;;;;;;35.83;18.83;;;6.30;99.90;;;;;;5112107;28;20222;-76
2024/03/16 05:37:35;;;;;;;39.63;18.57;;;6.40;99.90;;;;;;5092601;28;20198;-76
2024/03/16 05:40:23;;;;;;;37.90;18.80;;;6.30;99.90;;;;;;5091251;28;20233;-76
2024/03/16 05:43:11;;;;;;;37.00;18.53;;;6.30;99.90;;;;;;5092841;28;20205;-76
2024/03/16 05:45:58;;;;;;;36.77;17.47;;;6.30;99.90;;;;;;5092306;28;20206;-76
2024/03/16 05:48:49;;;;;;;34.93;17.67;;;6.30;99.90;;;;;;5092136;28;20699;-76
2024/03/16 05:51:37;;;;;;;38.50;18.87;;;6.40;99.90;;;;;;5091378;28;20195;-76
2024/03/16 05:54:24;;;;;;;40.37;19.30;;;6.40;99.90;;;;;;5091093;28;20246;-76
2024/03/16 05:57:12;;;;;;;39.20;18.87;;;6.40;99.90;;;;;;5091109;28;20308;-76
2024/03/16 06:00:00;;;;;;;35.83;18.90;;;6.50;99.90;;;;;;5091319;28;20188;-76
2024/03/16 06:02:51;;;;;;;40.57;19.37;;;6.50;99.90;;;;;;5090942;28;20187;-76
2024/03/16 06:05:40;;;;;;;38.27;19.13;;;6.60;99.90;;;;;;5090870;28;20303;-76
2024/03/16 06:08:27;;;;;;;37.13;18.77;;;6.70;99.90;;;;;;5091997;28;20274;-76
2024/03/16 06:11:15;;;;;;;38.60;19.37;;;6.80;99.90;;;;;;5093099;28;20195;-76
2024/03/16 06:14:04;;;;;;;37.97;19.87;;;6.90;99.90;;;;;;5091814;28;20194;-76
2024/03/16 06:16:51;;;;;;;34.27;18.53;;;6.80;99.90;;;;;;5091159;28;20199;-76
2024/03/16 06:19:39;;;;;;;37.23;18.03;;;6.90;99.90;;;;;;5095496;28;20217;-76
2024/03/16 06:22:30;;;;;;;36.83;18.53;;;6.90;99.90;;;;;;5095386;28;20191;-76
2024/03/16 06:25:20;;;;;;;38.50;19.40;;;7.00;99.90;;;;;;5095938;28;20203;-76
2024/03/16 06:28:09;;;;;;;40.67;18.97;;;7.10;99.90;;;;;;5096453;28;20198;-76
2024/03/16 06:31:07;;;;;;;38.50;19.47;;;7.20;99.90;;;;;;5094864;28;20218;-77
2024/03/16 06:33:55;;;;;;;35.13;19.20;;;7.30;99.90;;;;;;5095908;28;20206;-77
2024/03/16 06:36:43;;;;;;;36.63;19.53;;;7.30;99.90;;;;;;5100900;28;20224;-77
2024/03/16 06:39:31;;;;;;;35.83;18.33;;;7.30;99.90;;;;;;5101199;28;20472;-77
2024/03/16 06:42:19;;;;;;;38.00;18.67;;;7.30;99.90;;;;;;5114890;28;20199;-77
2024/03/16 06:45:08;;;;;;;37.90;18.57;;;7.30;99.90;;;;;;5114386;28;20190;-77
2024/03/16 06:47:55;;;;;;;35.77;18.90;;;7.30;99.90;;;;;;5114912;28;20280;-77
2024/03/16 06:50:46;;;;;;;35.87;19.07;;;7.30;99.90;;;;;;5114549;28;20225;-77
2024/03/16 06:53:34;;;;;;;39.93;18.60;;;7.30;99.90;;;;;;5116091;28;20251;-77
2024/03/16 06:56:21;;;;;;;41.17;19.27;;;7.40;99.90;;;;;;5114638;28;20225;-77
2024/03/16 06:59:08;;;;;;;38.30;18.97;;;7.40;99.90;;;;;;5115036;28;20231;-77
2024/03/16 07:01:56;;;;;;;39.30;19.03;;;7.40;99.90;;;;;;5114521;28;20230;-77
2024/03/16 07:04:43;;;;;;;37.70;18.20;;;7.50;99.90;;;;;;5114922;28;20735;-76
2024/03/16 07:07:31;;;;;;;36.83;18.63;;;7.40;99.90;;;;;;5113994;28;20276;-77
2024/03/16 07:10:18;;;;;;;38.80;19.67;;;7.50;99.90;;;;;;5113593;28;20189;-76
2024/03/16 07:13:10;;;;;;;38.57;19.40;;;7.60;99.90;;;;;;5113810;28;20195;-76
2024/03/16 07:15:58;;;;;;;38.27;19.03;;;7.50;99.90;;;;;;5099123;28;20355;-77
2024/03/16 07:18:45;;;;;;;38.40;19.60;;;7.60;99.90;;;;;;5115259;28;20760;-77
2024/03/16 07:21:33;;;;;;;39.83;19.47;;;7.50;99.90;;;;;;5114333;28;20611;-76
2024/03/16 07:24:21;;;;;;;38.60;19.63;;;7.50;99.90;;;;;;5113929;28;20191;-76
2024/03/16 07:27:11;;;;;;;41.70;20.33;;;7.50;99.90;;;;;;5114372;28;20196;-76
2024/03/16 07:29:59;;;;;;;38.73;20.23;;;7.40;99.90;;;;;;5114162;28;20209;-76
2024/03/16 07:32:47;;;;;;;39.30;20.57;;;7.30;99.90;;;;;;5115046;28;20203;-76
2024/03/16 07:35:35;;;;;;;41.20;21.13;;;7.30;99.90;;;;;;5114685;28;20234;-76
2024/03/16 07:38:23;;;;;;;44.20;21.87;;;7.20;99.90;;;;;;5098720;28;20203;-76
2024/03/16 07:41:16;;;;;;;50.67;23.20;;;7.10;99.90;;;;;;5113615;28;20793;-76
2024/03/16 07:44:05;;;;;;;44.27;22.27;;;7.20;99.90;;;;;;5113070;28;20352;-76
2024/03/16 07:46:53;;;;;;;44.00;22.70;;;7.20;99.90;;;;;;5113245;28;20571;-76
2024/03/16 07:49:41;;;;;;;49.67;22.90;;;7.20;99.90;;;;;;5113194;28;20320;-76
2024/03/16 07:52:29;;;;;;;47.57;23.10;;;7.20;99.90;;;;;;5098626;28;20665;-76
2024/03/16 07:55:17;;;;;;;46.10;23.80;;;7.20;99.90;;;;;;5099065;28;20220;-76
2024/03/16 07:58:04;;;;;;;46.23;23.47;;;7.10;99.90;;;;;;5100204;28;20192;-76
2024/03/16 08:00:52;;;;;;;49.47;24.07;;;7.20;99.90;;;;;;5113461;28;20194;-76
2024/03/16 08:03:39;;;;;;;45.93;22.43;;;7.20;99.90;;;;;;5099364;28;20214;-75
2024/03/16 08:06:27;;;;;;;45.77;23.83;;;7.30;99.90;;;;;;5099535;28;20656;-75
2024/03/16 08:09:15;;;;;;;47.67;22.93;;;7.40;99.90;;;;;;5113745;28;20194;-74
2024/03/16 08:12:02;;;;;;;48.33;24.23;;;7.50;99.90;;;;;;5112758;28;20187;-75
2024/03/16 08:14:50;;;;;;;50.73;24.70;;;7.50;99.90;;;;;;5112424;28;20300;-75
2024/03/16 08:17:37;;;;;;;48.37;23.73;;;7.70;99.90;;;;;;5113782;28;20412;-75
2024/03/16 08:20:25;;;;;;;46.23;23.83;;;7.80;99.90;;;;;;5113557;28;20212;-76
2024/03/16 08:23:12;;;;;;;49.77;24.90;;;8.00;99.90;;;;;;5113605;28;20196;-76
2024/03/16 08:26:00;;;;;;;47.93;24.30;;;8.20;99.90;;;;;;5112235;28;20200;-76
2024/03/16 08:28:48;;;;;;;45.63;22.73;;;8.50;99.90;;;;;;5113114;28;20208;-77
2024/03/16 08:31:36;;;;;;;44.30;22.73;;;8.70;99.90;;;;;;5098123;28;20561;-76
2024/03/16 08:34:23;;;;;;;44.77;24.33;;;8.80;99.90;;;;;;5113459;28;20668;-76
2024/03/16 08:37:11;;;;;;;46.37;23.37;;;9.00;99.90;;;;;;5111752;28;20226;-76
2024/03/16 08:40:11;;;;;;;44.33;22.80;;;9.10;99.90;;;;;;5084891;28;20231;-76
2024/03/16 08:43:00;;;;;;;40.70;22.17;;;9.20;99.90;;;;;;5098312;28;20320;-76
2024/03/16 08:45:48;;;;;;;45.37;22.50;;;9.40;99.90;;;;;;5111642;28;20192;-76
2024/03/16 08:48:35;;;;;;;44.33;23.23;;;9.60;99.90;;;;;;5112601;28;20223;-76
2024/03/16 08:51:24;;;;;;;44.17;22.97;;;9.80;99.90;;;;;;5112782;28;20333;-76
2024/03/16 08:54:14;;;;;;;45.53;22.90;;;10.00;99.90;;;;;;5098390;28;20200;-76
2024/03/16 08:57:04;;;;;;;40.77;21.73;;;10.10;99.90;;;;;;5112100;28;20695;-76
2024/03/16 08:59:51;;;;;;;46.83;23.23;;;10.30;99.90;;;;;;5111952;28;20204;-75
2024/03/16 09:02:39;;;;;;;43.30;22.50;;;10.30;99.90;;;;;;5098229;28;20670;-76
2024/03/16 09:05:26;;;;;;;41.03;22.43;;;10.40;99.90;;;;;;5112181;28;20745;-76
2024/03/16 09:08:14;;;;;;;43.03;22.40;;;10.50;99.90;;;;;;5111459;28;20291;-76
2024/03/16 09:11:02;;;;;;;41.60;21.73;;;10.50;99.90;;;;;;5111887;28;20188;-75
2024/03/16 09:13:50;;;;;;;42.07;22.40;;;10.60;99.90;;;;;;5111219;28;20197;-76
2024/03/16 09:16:40;;;;;;;41.00;23.30;;;10.80;99.90;;;;;;5111989;28;20225;-77
2024/03/16 09:19:28;;;;;;;39.33;21.53;;;11.10;99.90;;;;;;5097832;28;20208;-76
2024/03/16 09:22:16;;;;;;;37.10;21.57;;;11.30;99.90;;;;;;5110995;28;20197;-76
2024/03/16 09:25:08;;;;;;;42.57;22.57;;;11.40;99.90;;;;;;5097550;28;20204;-76
2024/03/16 09:27:56;;;;;;;42.87;22.57;;;11.50;99.90;;;;;;5111301;28;20270;-76
2024/03/16 09:30:44;;;;;;;40.73;22.13;;;11.50;99.90;;;;;;5112828;28;20193;-75
2024/03/16 09:33:32;;;;;;;38.67;21.93;;;11.50;99.90;;;;;;5112784;28;20196;-76
2024/03/16 09:36:20;;;;;;;40.63;21.20;;;11.50;99.90;;;;;;5096961;28;20313;-76
2024/03/16 09:39:10;;;;;;;47.70;23.07;;;11.50;99.90;;;;;;5098237;28;20322;-76
2024/03/16 09:41:58;;;;;;;40.13;22.10;;;11.20;99.90;;;;;;5112570;28;20230;-76
2024/03/16 09:44:46;;;;;;;39.63;22.70;;;11.20;99.90;;;;;;5111520;28;20604;-76
2024/03/16 09:47:33;;;;;;;43.17;22.87;;;11.20;99.90;;;;;;5083297;28;20215;-76
2024/03/16 09:50:22;;;;;;;40.87;23.10;;;11.10;99.90;;;;;;5095977;28;20204;-75
2024/03/16 09:53:15;;;;;;;44.00;23.03;;;11.10;99.90;;;;;;5095840;28;20690;-76
2024/03/16 09:56:20;;;;;;;41.93;22.80;;;11.00;99.90;;;;;;5096688;28;20718;-76
2024/03/16 09:59:17;;;;;;;43.17;23.37;;;10.90;99.90;;;;;;5096702;28;20197;-76
2024/03/16 10:02:16;;;;;;;41.83;22.97;;;10.80;99.90;;;;;;5096841;28;20241;-76
2024/03/16 10:05:05;;;;;;;46.03;22.83;;;10.80;99.90;;;;;;5082747;28;20209;-76
2024/03/16 10:07:53;;;;;;;40.50;22.63;;;10.90;99.90;;;;;;5083007;28;20197;-75
2024/03/16 10:10:42;;;;;;;44.77;23.73;;;10.90;99.90;;;;;;5096481;28;20538;-75
2024/03/16 10:13:29;;;;;;;41.33;22.57;;;10.90;99.90;;;;;;5095699;28;20586;-76
2024/03/16 10:16:16;;;;;;;44.73;22.83;;;10.90;99.90;;;;;;5096498;28;20265;-76
2024/03/16 10:19:06;;;;;;;42.90;23.43;;;11.00;99.90;;;;;;5082742;28;20213;-75
2024/03/16 10:21:54;;;;;;;44.53;23.83;;;11.10;99.90;;;;;;5096553;28;20188;-75
2024/03/16 10:24:40;;;;;;;45.90;23.90;;;11.20;99.90;;;;;;5096594;28;20201;-75
2024/03/16 10:27:28;;;;;;;45.27;24.53;;;11.30;99.90;;;;;;5096423;28;20598;-75
2024/03/16 10:30:16;;;;;;;49.23;23.97;;;11.40;99.90;;;;;;5082696;28;20193;-75
2024/03/16 10:33:02;;;;;;;43.73;23.83;;;11.50;99.90;;;;;;5096508;28;20199;-75
2024/03/16 10:35:52;;;;;;;44.50;24.03;;;11.40;99.90;;;;;;5096032;28;20241;-75
2024/03/16 10:38:42;;;;;;;47.53;25.10;;;11.40;99.90;;;;;;5095640;28;20192;-75
2024/03/16 10:41:28;;;;;;;46.67;24.60;;;11.50;99.90;;;;;;5096237;28;20197;-76
2024/03/16 10:44:15;;;;;;;44.30;23.80;;;11.60;99.90;;;;;;5085392;28;20204;-75
2024/03/16 10:47:05;;;;;;;42.13;23.50;;;11.80;99.90;;;;;;5082034;28;20566;-75
2024/03/16 10:49:51;;;;;;;43.97;23.93;;;12.00;99.90;;;;;;5096313;28;20216;-75
2024/03/16 10:52:41;;;;;;;43.17;23.33;;;12.20;99.90;;;;;;5094848;28;20191;-75
2024/03/16 10:55:29;;;;;;;40.90;22.57;;;12.70;99.90;;;;;;5082525;28;20224;-77
2024/03/16 10:58:19;;;;;;;40.83;22.93;;;13.20;99.90;;;;;;5082356;28;20197;-75
2024/03/16 11:01:18;;;;;;;40.67;22.30;;;13.60;99.90;;;;;;5095036;28;20565;-76
2024/03/16 11:04:11;;;;;;;40.40;22.83;;;14.00;99.90;;;;;;5083459;28;20631;-76
2024/03/16 11:06:58;;;;;;;43.87;22.90;;;14.60;99.90;;;;;;5086227;28;20177;-76
2024/03/16 11:09:44;;;;;;;36.37;21.17;;;15.20;99.90;;;;;;5098723;28;20207;-76
2024/03/16 11:12:31;;;;;;;36.93;21.27;;;15.80;99.90;;;;;;5086797;28;20660;-76
2024/03/16 11:15:32;;;;;;;36.27;20.47;;;16.60;99.90;;;;;;5099341;28;20201;-76
2024/03/16 11:18:18;;;;;;;34.40;20.63;;;17.20;99.90;;;;;;5099356;28;20187;-76
2024/03/16 11:21:14;;;;;;;33.57;19.57;;;17.60;99.90;;;;;;5099305;28;20189;-76
2024/03/16 11:24:10;;;;;;;32.43;19.07;;;17.90;99.90;;;;;;5098136;28;20650;-77
2024/03/16 11:26:57;;;;;;;29.50;18.13;;;18.00;99.90;;;;;;5099452;28;20716;-77
2024/03/16 11:30:00;;;;;;;28.27;18.47;;;18.10;99.90;;;;;;5098153;28;20535;-77
2024/03/16 11:32:47;;;;;;;32.47;18.93;;;18.60;99.90;;;;;;5099459;28;20551;-77
2024/03/16 11:35:33;;;;;;;31.90;18.73;;;19.00;99.90;;;;;;5098796;28;20238;-77
2024/03/16 11:38:19;;;;;;;29.57;18.03;;;19.20;99.90;;;;;;5099313;28;20233;-77
2024/03/16 11:41:07;;;;;;;29.50;17.90;;;19.40;99.90;;;;;;5085477;28;20197;-76
2024/03/16 11:43:53;;;;;;;31.20;18.50;;;19.70;99.90;;;;;;5098896;28;20197;-76
2024/03/16 11:46:41;;;;;;;28.73;18.40;;;19.50;99.90;;;;;;5085020;28;20192;-77
2024/03/16 11:49:27;;;;;;;34.60;19.17;;;18.60;99.90;;;;;;5098571;28;20253;-76
2024/03/16 11:52:16;;;;;;;30.60;19.07;;;17.80;99.90;;;;;;5098499;28;20192;-76
2024/03/16 11:55:02;;;;;;;30.13;17.67;;;17.80;99.90;;;;;;5098765;28;20660;-76
2024/03/16 11:57:49;;;;;;;27.97;18.43;;;18.10;99.90;;;;;;5098798;28;20185;-76
2024/03/16 12:00:35;;;;;;;32.93;19.57;;;18.20;99.90;;;;;;5098840;28;20193;-76
2024/03/16 12:03:22;;;;;;;32.80;18.60;;;18.00;99.90;;;;;;5083404;28;20185;-76
2024/03/16 12:06:12;;;;;;;29.00;17.73;;;17.80;99.90;;;;;;5098666;28;20193;-77
2024/03/16 12:08:59;;;;;;;31.93;18.27;;;18.10;99.90;;;;;;5098735;28;20193;-76
2024/03/16 12:11:49;;;;;;;26.10;16.70;;;18.00;99.90;;;;;;5098520;28;20192;-76
2024/03/16 12:14:35;;;;;;;28.27;16.73;;;17.70;99.90;;;;;;5098432;28;20193;-76
2024/03/16 12:17:21;;;;;;;28.33;17.43;;;17.40;99.90;;;;;;5098070;28;20221;-76
2024/03/16 12:20:10;;;;;;;26.10;16.63;;;17.10;99.90;;;;;;5098124;28;20211;-75
2024/03/16 12:22:56;;;;;;;27.37;16.17;;;17.20;99.90;;;;;;5098113;28;20185;-77
2024/03/16 12:25:43;;;;;;;27.20;16.70;;;17.20;99.90;;;;;;5098271;28;20193;-76
2024/03/16 12:28:30;;;;;;;24.77;15.60;;;17.60;99.90;;;;;;5097989;28;20192;-76
2024/03/16 12:31:16;;;;;;;38.13;16.63;;;17.80;99.90;;;;;;5098112;28;20189;-76
2024/03/16 12:34:02;;;;;;;27.27;15.80;;;17.90;99.90;;;;;;5097117;28;20232;-77
2024/03/16 12:36:49;;;;;;;24.37;15.50;;;17.80;99.90;;;;;;5097882;28;20247;-77
2024/03/16 12:39:36;;;;;;;25.40;15.07;;;17.70;99.90;;;;;;5098712;28;20215;-77
2024/03/16 12:42:22;;;;;;;25.10;15.67;;;17.40;99.90;;;;;;5098048;28;20271;-77
2024/03/16 12:45:10;;;;;;;28.97;15.40;;;17.60;99.90;;;;;;5097706;28;20185;-77
2024/03/16 12:47:56;;;;;;;26.30;15.00;;;17.40;99.90;;;;;;5097496;28;20227;-77
2024/03/16 12:50:42;;;;;;;23.77;15.43;;;17.60;99.90;;;;;;5084970;28;20363;-76
2024/03/16 12:53:29;;;;;;;26.13;15.20;;;17.70;99.90;;;;;;5097680;28;20280;-76
2024/03/16 12:56:15;;;;;;;27.63;15.93;;;17.90;99.90;;;;;;5097539;28;20595;-77
2024/03/16 12:59:04;;;;;;;25.50;15.83;;;18.10;99.90;;;;;;5084902;28;20193;-77
2024/03/16 13:01:51;;;;;;;25.70;15.70;;;18.30;99.90;;;;;;5084002;28;20189;-77
2024/03/16 13:04:37;;;;;;;31.53;16.40;;;18.80;99.90;;;;;;5084010;28;20209;-77
2024/03/16 13:07:24;;;;;;;29.80;16.33;;;19.20;99.90;;;;;;5084546;28;20645;-76
2024/03/16 13:10:10;;;;;;;24.03;15.33;;;19.90;99.90;;;;;;5097421;28;20641;-76
2024/03/16 13:12:57;;;;;;;23.30;14.87;;;19.70;99.90;;;;;;5082521;28;20649;-76
2024/03/16 13:15:44;;;;;;;22.07;14.77;;;19.70;99.90;;;;;;5097315;28;20220;-76
2024/03/16 13:18:31;;;;;;;24.47;13.57;;;19.50;99.90;;;;;;5097071;28;20192;-76
2024/03/16 13:21:17;;;;;;;21.50;13.03;;;19.40;99.90;;;;;;5097236;28;20189;-76
2024/03/16 13:24:04;;;;;;;17.77;11.90;;;19.50;99.90;;;;;;5096656;28;20204;-76
2024/03/16 13:26:50;;;;;;;16.77;11.70;;;19.60;99.90;;;;;;5095953;28;20737;-77
2024/03/16 13:29:37;;;;;;;18.80;11.03;;;19.80;99.90;;;;;;5096974;28;20188;-76
2024/03/16 13:32:23;;;;;;;16.67;10.80;;;20.20;99.90;;;;;;5096999;28;20185;-76
2024/03/16 13:35:10;;;;;;;18.33;10.93;;;20.30;99.90;;;;;;5098426;28;20219;-75
2024/03/16 13:37:56;;;;;;;15.60;9.77;;;19.90;99.90;;;;;;5096889;28;20230;-76
2024/03/16 13:40:43;;;;;;;18.10;9.57;;;19.70;99.90;;;;;;5097364;28;20185;-76
2024/03/16 13:43:33;;;;;;;20.00;9.33;;;18.90;99.90;;;;;;5083668;28;20193;-76
2024/03/16 13:46:19;;;;;;;12.27;8.80;;;18.90;99.90;;;;;;5096211;28;20238;-77
2024/03/16 13:49:06;;;;;;;13.63;9.00;;;18.80;99.90;;;;;;5097215;28;20297;-75
2024/03/16 13:51:52;;;;;;;12.20;8.20;;;18.50;99.90;;;;;;5097540;28;20193;-76
2024/03/16 13:54:38;;;;;;;5.67;2.80;;;17.90;99.90;;;;;;5082352;28;20189;-75
2024/03/16 13:57:25;;;;;;;5.33;1.57;;;16.80;99.90;;;;;;5095323;28;20219;-74
2024/03/16 14:00:11;;;;;;;4.90;1.10;;;14.70;99.90;;;;;;5096704;28;20195;-74
2024/03/16 14:02:59;;;;;;;4.23;1.20;;;13.90;99.90;;;;;;5083526;28;20193;-74
2024/03/16 14:05:45;;;;;;;4.17;1.20;;;13.20;99.90;;;;;;5082694;28;20189;-74
2024/03/16 14:08:31;;;;;;;1.70;1.20;;;12.70;99.90;;;;;;5096236;28;20375;-74
2024/03/16 14:11:18;;;;;;;3.40;1.30;;;12.60;99.90;;;;;;5096451;28;20192;-74
2024/03/16 14:14:08;;;;;;;3.83;1.17;;;12.60;99.90;;;;;;5095960;28;20652;-74
2024/03/16 14:16:54;;;;;;;3.83;1.30;;;12.60;99.90;;;;;;5095695;28;20223;-75
2024/03/16 14:19:43;;;;;;;4.77;1.43;;;12.40;99.90;;;;;;5096308;28;20234;-74
2024/03/16 14:22:29;;;;;;;4.27;1.40;;;12.20;99.90;;;;;;5096056;28;20199;-76